sensor_id;sensor_type;location;lat;lon;timestamp;pressure;altitude;pressure_sealevel;temperature;humidity
76590;BME280;65471;55.908;37.880;2023-03-04T00:02:05;98076.56;;;0.24;69.67
76590;BME280;65471;55.908;37.880;2023-03-04T00:04:32;98087.41;;;0.29;69.72
76590;BME280;65471;55.908;37.880;2023-03-04T00:06:58;98074.53;;;0.26;69.47
76590;BME280;65471;55.908;37.880;2023-03-04T00:09:26;98081.06;;;0.23;69.97
76590;BME280;65471;55.908;37.880;2023-03-04T00:11:53;98073.50;;;0.20;69.84
76590;BME280;65471;55.908;37.880;2023-03-04T00:14:20;98070.84;;;0.13;70.25
76590;BME280;65471;55.908;37.880;2023-03-04T00:16:46;98076.59;;;0.04;70.54
76590;BME280;65471;55.908;37.880;2023-03-04T00:19:14;98070.66;;;0.02;70.34
76590;BME280;65471;55.908;37.880;2023-03-04T00:21:41;98066.97;;;0.03;70.71
76590;BME280;65471;55.908;37.880;2023-03-04T00:24:08;98061.66;;;0.03;70.91
76590;BME280;65471;55.908;37.880;2023-03-04T00:26:35;98061.06;;;0.01;70.39
76590;BME280;65471;55.908;37.880;2023-03-04T00:29:02;98052.47;;;-0.02;70.71
76590;BME280;65471;55.908;37.880;2023-03-04T00:31:28;98037.78;;;-0.04;70.72
76590;BME280;65471;55.908;37.880;2023-03-04T00:33:55;98036.75;;;-0.10;70.92
76590;BME280;65471;55.908;37.880;2023-03-04T00:36:22;98036.97;;;-0.11;70.94
76590;BME280;65471;55.908;37.880;2023-03-04T00:38:49;98034.69;;;-0.14;71.42
76590;BME280;65471;55.908;37.880;2023-03-04T00:41:15;98032.28;;;-0.23;71.38
76590;BME280;65471;55.908;37.880;2023-03-04T00:43:42;98028.97;;;-0.25;71.71
76590;BME280;65471;55.908;37.880;2023-03-04T00:46:09;98019.78;;;-0.29;71.55
76590;BME280;65471;55.908;37.880;2023-03-04T00:48:37;98016.13;;;-0.35;71.71
76590;BME280;65471;55.908;37.880;2023-03-04T00:51:04;98018.78;;;-0.41;72.29
76590;BME280;65471;55.908;37.880;2023-03-04T00:53:31;98017.56;;;-0.52;72.48
76590;BME280;65471;55.908;37.880;2023-03-04T00:55:58;98023.88;;;-0.53;72.56
76590;BME280;65471;55.908;37.880;2023-03-04T00:58:24;98016.13;;;-0.55;72.83
76590;BME280;65471;55.908;37.880;2023-03-04T01:00:51;98011.66;;;-0.54;72.87
76590;BME280;65471;55.908;37.880;2023-03-04T01:03:18;97993.88;;;-0.67;72.59
76590;BME280;65471;55.908;37.880;2023-03-04T01:05:45;98022.25;;;-0.54;72.29
76590;BME280;65471;55.908;37.880;2023-03-04T01:08:12;98028.56;;;-0.68;72.74
76590;BME280;65471;55.908;37.880;2023-03-04T01:10:38;98032.03;;;-0.75;73.44
76590;BME280;65471;55.908;37.880;2023-03-04T01:13:05;98025.69;;;-0.74;73.29
76590;BME280;65471;55.908;37.880;2023-03-04T01:15:32;98025.28;;;-0.71;73.17
76590;BME280;65471;55.908;37.880;2023-03-04T01:17:59;98022.88;;;-0.65;73.26
76590;BME280;65471;55.908;37.880;2023-03-04T01:20:26;98033.47;;;-0.65;73.25
76590;BME280;65471;55.908;37.880;2023-03-04T01:22:53;98030.41;;;-0.62;73.31
76590;BME280;65471;55.908;37.880;2023-03-04T01:25:19;98030.41;;;-0.62;73.43
76590;BME280;65471;55.908;37.880;2023-03-04T01:27:46;98026.53;;;-0.60;73.39
76590;BME280;65471;55.908;37.880;2023-03-04T01:30:13;98018.59;;;-0.60;73.28
76590;BME280;65471;55.908;37.880;2023-03-04T01:32:40;98017.75;;;-0.60;73.30
76590;BME280;65471;55.908;37.880;2023-03-04T01:35:07;98023.69;;;-0.58;73.84
76590;BME280;65471;55.908;37.880;2023-03-04T01:37:34;98012.63;;;-0.62;73.74
76590;BME280;65471;55.908;37.880;2023-03-04T01:40:01;98019.16;;;-0.64;73.53
76590;BME280;65471;55.908;37.880;2023-03-04T01:42:31;98015.09;;;-0.67;73.52
76590;BME280;65471;55.908;37.880;2023-03-04T01:44:59;98016.31;;;-0.70;73.92
76590;BME280;65471;55.908;37.880;2023-03-04T01:47:29;98004.88;;;-0.70;73.92
76590;BME280;65471;55.908;37.880;2023-03-04T01:49:57;98003.84;;;-0.76;74.42
76590;BME280;65471;55.908;37.880;2023-03-04T01:52:26;97993.63;;;-0.79;74.32
76590;BME280;65471;55.908;37.880;2023-03-04T01:54:54;98001.19;;;-0.69;74.58
76590;BME280;65471;55.908;37.880;2023-03-04T01:57:23;97995.09;;;-0.70;73.94
76590;BME280;65471;55.908;37.880;2023-03-04T02:02:50;97994.03;;;-0.68;73.80
76590;BME280;65471;55.908;37.880;2023-03-04T02:05:19;97980.78;;;-0.68;73.91
76590;BME280;65471;55.908;37.880;2023-03-04T02:07:46;97977.53;;;-0.71;73.94
76590;BME280;65471;55.908;37.880;2023-03-04T02:10:13;97978.53;;;-0.72;74.13
76590;BME280;65471;55.908;37.880;2023-03-04T02:12:40;97978.94;;;-0.75;74.04
76590;BME280;65471;55.908;37.880;2023-03-04T02:15:07;97951.78;;;-0.90;73.93
76590;BME280;65471;55.908;37.880;2023-03-04T02:17:35;97979.13;;;-0.83;73.94
76590;BME280;65471;55.908;37.880;2023-03-04T02:22:39;97971.59;;;-0.99;74.32
76590;BME280;65471;55.908;37.880;2023-03-04T02:25:17;97960.75;;;-1.05;74.42
76590;BME280;65471;55.908;37.880;2023-03-04T02:27:46;97964.41;;;-1.06;74.47
76590;BME280;65471;55.908;37.880;2023-03-04T02:30:13;97958.72;;;-1.09;74.53
76590;BME280;65471;55.908;37.880;2023-03-04T02:32:41;97952.97;;;-1.13;74.25
76590;BME280;65471;55.908;37.880;2023-03-04T02:35:15;97955.63;;;-1.13;74.28
76590;BME280;65471;55.908;37.880;2023-03-04T02:37:43;97953.19;;;-1.14;74.59
76590;BME280;65471;55.908;37.880;2023-03-04T02:40:14;97947.28;;;-1.16;74.52
76590;BME280;65471;55.908;37.880;2023-03-04T02:42:43;97937.47;;;-1.16;74.54
76590;BME280;65471;55.908;37.880;2023-03-04T02:45:33;97934.81;;;-1.29;75.05
76590;BME280;65471;55.908;37.880;2023-03-04T02:48:01;97932.97;;;-1.29;75.04
76590;BME280;65471;55.908;37.880;2023-03-04T02:50:30;97925.00;;;-1.29;74.93
76590;BME280;65471;55.908;37.880;2023-03-04T02:52:59;97928.50;;;-1.28;75.17
76590;BME280;65471;55.908;37.880;2023-03-04T02:55:26;97920.72;;;-1.30;75.33
76590;BME280;65471;55.908;37.880;2023-03-04T02:57:54;97919.50;;;-1.27;75.05
76590;BME280;65471;55.908;37.880;2023-03-04T03:00:21;97915.41;;;-1.30;74.89
76590;BME280;65471;55.908;37.880;2023-03-04T03:02:47;97909.28;;;-1.37;75.13
76590;BME280;65471;55.908;37.880;2023-03-04T03:05:15;97900.31;;;-1.43;75.11
76590;BME280;65471;55.908;37.880;2023-03-04T03:07:42;97905.00;;;-1.45;74.87
76590;BME280;65471;55.908;37.880;2023-03-04T03:10:09;97899.25;;;-1.48;74.85
76590;BME280;65471;55.908;37.880;2023-03-04T03:12:36;97901.91;;;-1.48;74.97
76590;BME280;65471;55.908;37.880;2023-03-04T03:15:03;97890.50;;;-1.49;74.97
76590;BME280;65471;55.908;37.880;2023-03-04T03:17:30;97882.34;;;-1.54;74.94
76590;BME280;65471;55.908;37.880;2023-03-04T03:19:57;97882.53;;;-1.62;75.35
76590;BME280;65471;55.908;37.880;2023-03-04T03:22:24;97883.94;;;-1.66;75.42
76590;BME280;65471;55.908;37.880;2023-03-04T03:24:50;97880.06;;;-1.70;76.09
76590;BME280;65471;55.908;37.880;2023-03-04T03:27:17;97873.75;;;-1.69;75.94
76590;BME280;65471;55.908;37.880;2023-03-04T03:29:44;97880.06;;;-1.70;76.13
76590;BME280;65471;55.908;37.880;2023-03-04T03:32:11;97875.56;;;-1.70;75.83
76590;BME280;65471;55.908;37.880;2023-03-04T03:34:38;97879.44;;;-1.73;75.71
76590;BME280;65471;55.908;37.880;2023-03-04T03:37:05;97877.81;;;-1.74;75.83
76590;BME280;65471;55.908;37.880;2023-03-04T03:39:32;97874.13;;;-1.73;75.91
76590;BME280;65471;55.908;37.880;2023-03-04T03:41:59;97867.22;;;-1.74;75.82
76590;BME280;65471;55.908;37.880;2023-03-04T03:44:25;97860.47;;;-1.76;76.06
76590;BME280;65471;55.908;37.880;2023-03-04T03:46:52;97862.28;;;-1.83;75.99
76590;BME280;65471;55.908;37.880;2023-03-04T03:49:19;97869.03;;;-1.81;76.08
76590;BME280;65471;55.908;37.880;2023-03-04T03:51:46;97863.34;;;-1.78;76.08
76590;BME280;65471;55.908;37.880;2023-03-04T03:54:13;97864.34;;;-1.79;75.51
76590;BME280;65471;55.908;37.880;2023-03-04T03:56:39;97864.13;;;-1.84;75.41
76590;BME280;65471;55.908;37.880;2023-03-04T03:59:06;97863.91;;;-1.89;76.04
76590;BME280;65471;55.908;37.880;2023-03-04T04:01:33;97859.22;;;-1.87;76.09
76590;BME280;65471;55.908;37.880;2023-03-04T04:04:00;97850.06;;;-1.84;76.35
76590;BME280;65471;55.908;37.880;2023-03-04T04:06:27;97846.41;;;-1.83;76.22
76590;BME280;65471;55.908;37.880;2023-03-04T04:08:53;97842.94;;;-1.84;76.59
76590;BME280;65471;55.908;37.880;2023-03-04T04:11:20;97835.41;;;-1.80;76.49
76590;BME280;65471;55.908;37.880;2023-03-04T04:13:47;97840.50;;;-1.79;76.96
76590;BME280;65471;55.908;37.880;2023-03-04T04:16:14;97820.53;;;-1.81;76.95
76590;BME280;65471;55.908;37.880;2023-03-04T04:18:41;97831.13;;;-1.75;77.01
76590;BME280;65471;55.908;37.880;2023-03-04T04:21:08;97826.88;;;-1.69;77.19
76590;BME280;65471;55.908;37.880;2023-03-04T04:23:35;97815.25;;;-1.68;76.81
76590;BME280;65471;55.908;37.880;2023-03-04T04:26:01;97825.66;;;-1.66;77.23
76590;BME280;65471;55.908;37.880;2023-03-04T04:28:28;97824.66;;;-1.65;77.26
76590;BME280;65471;55.908;37.880;2023-03-04T04:30:55;97819.75;;;-1.62;77.48
76590;BME280;65471;55.908;37.880;2023-03-04T04:33:22;97817.53;;;-1.58;77.43
76590;BME280;65471;55.908;37.880;2023-03-04T04:35:49;97820.78;;;-1.56;77.57
76590;BME280;65471;55.908;37.880;2023-03-04T04:38:16;97817.72;;;-1.53;78.01
76590;BME280;65471;55.908;37.880;2023-03-04T04:40:43;97804.06;;;-1.50;77.81
76590;BME280;65471;55.908;37.880;2023-03-04T04:43:09;97816.94;;;-1.47;77.72
76590;BME280;65471;55.908;37.880;2023-03-04T04:45:36;97811.00;;;-1.42;77.77
76590;BME280;65471;55.908;37.880;2023-03-04T04:48:03;97800.81;;;-1.39;77.92
76590;BME280;65471;55.908;37.880;2023-03-04T04:50:30;97803.25;;;-1.37;77.97
76590;BME280;65471;55.908;37.880;2023-03-04T04:52:58;97812.03;;;-1.36;77.58
76590;BME280;65471;55.908;37.880;2023-03-04T04:55:25;97804.09;;;-1.36;77.63
76590;BME280;65471;55.908;37.880;2023-03-04T04:57:52;97812.63;;;-1.34;77.88
76590;BME280;65471;55.908;37.880;2023-03-04T05:00:19;97804.69;;;-1.34;78.34
76590;BME280;65471;55.908;37.880;2023-03-04T05:02:46;97809.38;;;-1.36;78.11
76590;BME280;65471;55.908;37.880;2023-03-04T05:05:13;97803.47;;;-1.32;78.07
76590;BME280;65471;55.908;37.880;2023-03-04T05:07:39;97808.16;;;-1.27;77.83
76590;BME280;65471;55.908;37.880;2023-03-04T05:10:07;97805.69;;;-1.29;78.01
76590;BME280;65471;55.908;37.880;2023-03-04T05:12:34;97805.09;;;-1.31;78.31
76590;BME280;65471;55.908;37.880;2023-03-04T05:15:01;97780.00;;;-1.42;78.29
76590;BME280;65471;55.908;37.880;2023-03-04T05:17:29;97801.22;;;-1.22;78.21
76590;BME280;65471;55.908;37.880;2023-03-04T05:19:56;97805.28;;;-1.19;78.41
76590;BME280;65471;55.908;37.880;2023-03-04T05:22:23;97811.03;;;-1.15;78.33
76590;BME280;65471;55.908;37.880;2023-03-04T05:24:49;97810.19;;;-1.16;77.99
76590;BME280;65471;55.908;37.880;2023-03-04T05:27:17;97808.56;;;-1.24;77.90
76590;BME280;65471;55.908;37.880;2023-03-04T05:29:43;97808.97;;;-1.27;77.87
76590;BME280;65471;55.908;37.880;2023-03-04T05:32:12;97811.22;;;-1.24;77.94
76590;BME280;65471;55.908;37.880;2023-03-04T05:34:39;97805.09;;;-1.24;78.03
76590;BME280;65471;55.908;37.880;2023-03-04T05:37:06;97794.69;;;-1.32;77.97
76590;BME280;65471;55.908;37.880;2023-03-04T05:39:32;97802.84;;;-1.20;78.15
76590;BME280;65471;55.908;37.880;2023-03-04T05:41:59;97802.03;;;-1.21;77.81
76590;BME280;65471;55.908;37.880;2023-03-04T05:44:26;97804.06;;;-1.16;77.61
76590;BME280;65471;55.908;37.880;2023-03-04T05:46:53;97791.41;;;-1.14;77.66
76590;BME280;65471;55.908;37.880;2023-03-04T05:49:19;97796.72;;;-1.14;77.60
76590;BME280;65471;55.908;37.880;2023-03-04T05:51:46;97792.44;;;-1.09;77.32
76590;BME280;65471;55.908;37.880;2023-03-04T05:54:13;97772.84;;;-1.14;77.69
76590;BME280;65471;55.908;37.880;2023-03-04T05:56:40;97785.09;;;-1.07;77.57
76590;BME280;65471;55.908;37.880;2023-03-04T05:59:07;97789.78;;;-1.09;77.89
76590;BME280;65471;55.908;37.880;2023-03-04T06:01:34;97790.81;;;-1.10;77.70
76590;BME280;65471;55.908;37.880;2023-03-04T06:04:00;97785.69;;;-1.05;78.02
76590;BME280;65471;55.908;37.880;2023-03-04T06:06:27;97780.38;;;-0.98;77.68
76590;BME280;65471;55.908;37.880;2023-03-04T06:08:54;97776.09;;;-0.92;77.72
76590;BME280;65471;55.908;37.880;2023-03-04T06:11:21;97779.94;;;-0.81;77.41
76590;BME280;65471;55.908;37.880;2023-03-04T06:13:48;97771.53;;;-0.72;77.85
76590;BME280;65471;55.908;37.880;2023-03-04T06:16:15;97771.75;;;-0.66;77.31
76590;BME280;65471;55.908;37.880;2023-03-04T06:18:42;97760.50;;;-0.68;77.47
76590;BME280;65471;55.908;37.880;2023-03-04T06:21:09;97755.59;;;-0.65;77.57
76590;BME280;65471;55.908;37.880;2023-03-04T06:23:36;97763.91;;;-0.48;77.42
76590;BME280;65471;55.908;37.880;2023-03-04T06:26:03;97746.19;;;-0.54;77.18
76590;BME280;65471;55.908;37.880;2023-03-04T06:28:30;97766.34;;;-0.40;77.39
76590;BME280;65471;55.908;37.880;2023-03-04T06:30:57;97763.06;;;-0.42;76.64
76590;BME280;65471;55.908;37.880;2023-03-04T06:33:24;97749.59;;;-0.40;76.81
76590;BME280;65471;55.908;37.880;2023-03-04T06:35:55;97755.47;;;-0.31;76.93
76590;BME280;65471;55.908;37.880;2023-03-04T06:38:23;97759.53;;;-0.22;76.97
76590;BME280;65471;55.908;37.880;2023-03-04T06:40:50;97756.44;;;-0.19;76.35
76590;BME280;65471;55.908;37.880;2023-03-04T06:43:18;97748.88;;;-0.15;76.25
76590;BME280;65471;55.908;37.880;2023-03-04T06:45:45;97753.31;;;-0.09;76.42
76590;BME280;65471;55.908;37.880;2023-03-04T06:48:12;97746.78;;;-0.07;76.17
76590;BME280;65471;55.908;37.880;2023-03-04T06:50:39;97746.09;;;0.05;76.82
76590;BME280;65471;55.908;37.880;2023-03-04T06:53:06;97740.31;;;0.14;76.44
76590;BME280;65471;55.908;37.880;2023-03-04T06:55:33;97735.53;;;0.23;75.57
76590;BME280;65471;55.908;37.880;2023-03-04T06:58:00;97732.25;;;0.28;75.80
76590;BME280;65471;55.908;37.880;2023-03-04T07:00:27;97726.66;;;0.36;74.67
76590;BME280;65471;55.908;37.880;2023-03-04T07:02:54;97700.34;;;0.28;75.08
76590;BME280;65471;55.908;37.880;2023-03-04T07:05:21;97729.25;;;0.43;74.99
76590;BME280;65471;55.908;37.880;2023-03-04T07:07:47;97734.75;;;0.48;74.88
76590;BME280;65471;55.908;37.880;2023-03-04T07:10:17;97717.91;;;0.54;74.35
76590;BME280;65471;55.908;37.880;2023-03-04T07:12:44;97719.94;;;0.59;74.13
76590;BME280;65471;55.908;37.880;2023-03-04T07:15:11;97715.41;;;0.59;73.54
76590;BME280;65471;55.908;37.880;2023-03-04T07:17:38;97711.28;;;0.63;73.72
76590;BME280;65471;55.908;37.880;2023-03-04T07:20:05;97704.50;;;0.67;73.50
76590;BME280;65471;55.908;37.880;2023-03-04T07:22:32;97704.81;;;0.78;73.44
76590;BME280;65471;55.908;37.880;2023-03-04T07:24:59;97674.16;;;0.75;73.25
76590;BME280;65471;55.908;37.880;2023-03-04T07:27:26;97700.97;;;0.92;72.26
76590;BME280;65471;55.908;37.880;2023-03-04T07:29:53;97697.28;;;0.93;72.54
76590;BME280;65471;55.908;37.880;2023-03-04T07:32:19;97696.28;;;0.94;72.87
76590;BME280;65471;55.908;37.880;2023-03-04T07:34:46;97691.00;;;0.88;72.02
76590;BME280;65471;55.908;37.880;2023-03-04T07:37:13;97688.13;;;0.89;72.21
76590;BME280;65471;55.908;37.880;2023-03-04T07:39:40;97680.66;;;0.98;71.99
76590;BME280;65471;55.908;37.880;2023-03-04T07:42:06;97675.28;;;1.05;72.06
76590;BME280;65471;55.908;37.880;2023-03-04T07:44:33;97676.31;;;1.03;71.14
76590;BME280;65471;55.908;37.880;2023-03-04T07:47:00;97671.94;;;1.09;71.34
76590;BME280;65471;55.908;37.880;2023-03-04T07:49:27;97657.00;;;1.08;70.71
76590;BME280;65471;55.908;37.880;2023-03-04T07:51:54;97666.66;;;1.21;70.53
76590;BME280;65471;55.908;37.880;2023-03-04T07:54:20;97661.88;;;1.30;71.02
76590;BME280;65471;55.908;37.880;2023-03-04T07:56:47;97655.56;;;1.43;70.80
76590;BME280;65471;55.908;37.880;2023-03-04T07:59:14;97653.25;;;1.46;69.53
76590;BME280;65471;55.908;37.880;2023-03-04T08:01:41;97652.34;;;1.52;70.20
76590;BME280;65471;55.908;37.880;2023-03-04T08:04:09;97654.69;;;1.61;70.80
76590;BME280;65471;55.908;37.880;2023-03-04T08:06:39;97656.38;;;1.73;69.69
76590;BME280;65471;55.908;37.880;2023-03-04T08:09:07;97642.72;;;1.82;68.71
76590;BME280;65471;55.908;37.880;2023-03-04T08:11:36;97636.31;;;1.71;68.85
76590;BME280;65471;55.908;37.880;2023-03-04T08:14:03;97644.00;;;1.79;68.28
76590;BME280;65471;55.908;37.880;2023-03-04T08:16:30;97648.59;;;1.72;68.27
76590;BME280;65471;55.908;37.880;2023-03-04T08:19:01;97645.59;;;1.68;68.00
76590;BME280;65471;55.908;37.880;2023-03-04T08:21:29;97635.38;;;1.65;68.11
76590;BME280;65471;55.908;37.880;2023-03-04T08:23:57;97645.09;;;1.60;68.49
76590;BME280;65471;55.908;37.880;2023-03-04T08:26:34;97638.31;;;1.45;68.70
76590;BME280;65471;55.908;37.880;2023-03-04T08:29:07;97636.63;;;1.32;69.06
76590;BME280;65471;55.908;37.880;2023-03-04T08:31:35;97633.47;;;1.24;69.33
76590;BME280;65471;55.908;37.880;2023-03-04T08:34:03;97634.09;;;1.26;70.51
76590;BME280;65471;55.908;37.880;2023-03-04T08:36:30;97627.47;;;1.28;70.48
76590;BME280;65471;55.908;37.880;2023-03-04T08:38:56;97624.72;;;1.35;70.40
76590;BME280;65471;55.908;37.880;2023-03-04T08:41:23;97624.50;;;1.36;69.94
76590;BME280;65471;55.908;37.880;2023-03-04T08:43:52;97621.53;;;1.45;70.83
76590;BME280;65471;55.908;37.880;2023-03-04T08:46:19;97611.50;;;1.59;69.88
76590;BME280;65471;55.908;37.880;2023-03-04T08:48:47;97606.91;;;1.66;70.21
76590;BME280;65471;55.908;37.880;2023-03-04T08:51:14;97596.59;;;1.69;68.90
76590;BME280;65471;55.908;37.880;2023-03-04T08:53:42;97603.31;;;1.72;69.34
76590;BME280;65471;55.908;37.880;2023-03-04T08:56:10;97606.34;;;1.76;69.75
76590;BME280;65471;55.908;37.880;2023-03-04T08:58:38;97581.88;;;1.67;68.93
76590;BME280;65471;55.908;37.880;2023-03-04T09:01:07;97604.38;;;1.83;68.93
76590;BME280;65471;55.908;37.880;2023-03-04T09:03:36;97579.94;;;1.74;68.90
76590;BME280;65471;55.908;37.880;2023-03-04T09:06:03;97570.66;;;1.77;68.72
76590;BME280;65471;55.908;37.880;2023-03-04T09:08:30;97592.94;;;1.94;68.52
76590;BME280;65471;55.908;37.880;2023-03-04T09:10:57;97590.38;;;1.99;69.02
76590;BME280;65471;55.908;37.880;2023-03-04T09:13:26;97582.75;;;2.03;69.02
76590;BME280;65471;55.908;37.880;2023-03-04T09:15:54;97586.56;;;2.07;68.66
76590;BME280;65471;55.908;37.880;2023-03-04T09:18:22;97576.03;;;2.00;68.43
76590;BME280;65471;55.908;37.880;2023-03-04T09:20:49;97573.34;;;1.88;69.06
76590;BME280;65471;55.908;37.880;2023-03-04T09:23:17;97568.03;;;1.88;69.03
76590;BME280;65471;55.908;37.880;2023-03-04T09:25:45;97566.75;;;1.91;69.69
76590;BME280;65471;55.908;37.880;2023-03-04T09:28:14;97557.59;;;1.87;69.33
76590;BME280;65471;55.908;37.880;2023-03-04T09:30:41;97548.66;;;1.93;69.97
76590;BME280;65471;55.908;37.880;2023-03-04T09:33:09;97544.63;;;2.02;69.69
76590;BME280;65471;55.908;37.880;2023-03-04T09:35:36;97551.44;;;2.22;70.03
76590;BME280;65471;55.908;37.880;2023-03-04T09:38:03;97544.72;;;2.31;70.25
76590;BME280;65471;55.908;37.880;2023-03-04T09:40:39;97523.94;;;2.45;70.39
76590;BME280;65471;55.908;37.880;2023-03-04T09:43:29;97527.63;;;2.56;69.89
76590;BME280;65471;55.908;37.880;2023-03-04T09:45:59;97514.41;;;2.49;70.13
76590;BME280;65471;55.908;37.880;2023-03-04T09:48:29;97512.47;;;2.45;70.88
76590;BME280;65471;55.908;37.880;2023-03-04T09:56:39;97499.13;;;2.85;69.48
76590;BME280;65471;55.908;37.880;2023-03-04T10:01:57;97491.19;;;3.02;68.06
76590;BME280;65471;55.908;37.880;2023-03-04T10:04:35;97480.91;;;3.11;67.76
76590;BME280;65471;55.908;37.880;2023-03-04T10:07:16;97472.91;;;3.11;67.16
76590;BME280;65471;55.908;37.880;2023-03-04T10:09:51;97480.53;;;2.90;67.01
76590;BME280;65471;55.908;37.880;2023-03-04T10:12:22;97472.69;;;2.84;67.08
76590;BME280;65471;55.908;37.880;2023-03-04T10:14:56;97476.28;;;2.78;68.17
76590;BME280;65471;55.908;37.880;2023-03-04T10:20:14;97468.53;;;2.47;68.88
76590;BME280;65471;55.908;37.880;2023-03-04T10:22:48;97463.53;;;2.39;68.27
76590;BME280;65471;55.908;37.880;2023-03-04T10:25:30;97459.50;;;2.36;68.80
76590;BME280;65471;55.908;37.880;2023-03-04T10:28:33;97454.75;;;2.38;68.98
76590;BME280;65471;55.908;37.880;2023-03-04T10:33:39;97446.81;;;2.44;68.71
76590;BME280;65471;55.908;37.880;2023-03-04T10:39:16;97434.09;;;2.46;68.20
76590;BME280;65471;55.908;37.880;2023-03-04T10:41:52;97426.88;;;2.46;68.97
76590;BME280;65471;55.908;37.880;2023-03-04T10:44:19;97416.38;;;2.39;68.24
76590;BME280;65471;55.908;37.880;2023-03-04T10:46:48;97426.22;;;2.39;68.21
76590;BME280;65471;55.908;37.880;2023-03-04T10:49:17;97420.91;;;2.27;68.20
76590;BME280;65471;55.908;37.880;2023-03-04T10:51:53;97416.53;;;2.21;68.22
76590;BME280;65471;55.908;37.880;2023-03-04T10:54:33;97416.53;;;2.21;67.88
76590;BME280;65471;55.908;37.880;2023-03-04T10:57:13;97408.75;;;2.19;67.91
76590;BME280;65471;55.908;37.880;2023-03-04T11:04:54;97390.34;;;2.18;67.25
76590;BME280;65471;55.908;37.880;2023-03-04T11:07:23;97388.69;;;2.29;67.70
76590;BME280;65471;55.908;37.880;2023-03-04T11:09:51;97375.47;;;2.34;67.46
76590;BME280;65471;55.908;37.880;2023-03-04T11:12:31;97376.69;;;2.43;67.48
76590;BME280;65471;55.908;37.880;2023-03-04T11:15:00;97370.38;;;2.49;68.22
76590;BME280;65471;55.908;37.880;2023-03-04T11:17:41;97356.91;;;2.56;66.76
76590;BME280;65471;55.908;37.880;2023-03-04T11:20:22;97362.63;;;2.48;67.23
76590;BME280;65471;55.908;37.880;2023-03-04T11:22:52;97357.78;;;2.45;67.54
76590;BME280;65471;55.908;37.880;2023-03-04T11:25:32;97359.22;;;2.35;68.11
76590;BME280;65471;55.908;37.880;2023-03-04T11:28:20;97351.91;;;2.31;67.77
76590;BME280;65471;55.908;37.880;2023-03-04T11:30:58;97351.91;;;2.31;67.60
76590;BME280;65471;55.908;37.880;2023-03-04T11:39:40;97340.56;;;2.35;67.57
76590;BME280;65471;55.908;37.880;2023-03-04T11:44:45;97336.94;;;2.13;67.71
76590;BME280;65471;55.908;37.880;2023-03-04T11:47:25;97331.84;;;2.11;68.02
76590;BME280;65471;55.908;37.880;2023-03-04T12:03:33;97308.16;;;1.86;68.68
76590;BME280;65471;55.908;37.880;2023-03-04T12:09:08;97298.91;;;1.88;69.90
76590;BME280;65471;55.908;37.880;2023-03-04T12:26:32;97274.25;;;1.69;71.77
76590;BME280;65471;55.908;37.880;2023-03-04T12:43:07;97251.81;;;1.65;72.26
76590;BME280;65471;55.908;37.880;2023-03-04T12:45:43;97232.56;;;1.34;72.86
76590;BME280;65471;55.908;37.880;2023-03-04T12:53:48;97242.31;;;1.29;74.92
76590;BME280;65471;55.908;37.880;2023-03-04T12:59:05;97238.38;;;1.31;75.67
76590;BME280;65471;55.908;37.880;2023-03-04T13:01:41;97231.66;;;1.29;76.18
76590;BME280;65471;55.908;37.880;2023-03-04T13:07:24;97226.09;;;1.30;76.32
76590;BME280;65471;55.908;37.880;2023-03-04T13:10:13;97214.66;;;1.30;76.21
76590;BME280;65471;55.908;37.880;2023-03-04T13:12:57;97212.66;;;1.37;76.24
76590;BME280;65471;55.908;37.880;2023-03-04T13:20:40;97203.41;;;1.28;76.90
76590;BME280;65471;55.908;37.880;2023-03-04T13:28:21;97201.91;;;1.32;76.03
76590;BME280;65471;55.908;37.880;2023-03-04T13:36:04;97178.50;;;1.34;76.90
76590;BME280;65471;55.908;37.880;2023-03-04T13:38:35;97174.38;;;1.26;76.92
76590;BME280;65471;55.908;37.880;2023-03-04T13:46:56;97167.91;;;1.22;77.69
76590;BME280;65471;55.908;37.880;2023-03-04T13:49:23;97164.75;;;1.25;77.16
76590;BME280;65471;55.908;37.880;2023-03-04T13:51:51;97160.16;;;1.20;77.67
76590;BME280;65471;55.908;37.880;2023-03-04T13:59:43;97147.78;;;1.14;77.91
76590;BME280;65471;55.908;37.880;2023-03-04T14:04:43;97135.16;;;1.10;77.82
76590;BME280;65471;55.908;37.880;2023-03-04T14:15:26;97132.69;;;0.91;78.12
76590;BME280;65471;55.908;37.880;2023-03-04T14:17:58;97124.16;;;0.77;78.53
76590;BME280;65471;55.908;37.880;2023-03-04T14:20:35;97117.94;;;0.72;78.90
76590;BME280;65471;55.908;37.880;2023-03-04T14:23:20;97122.41;;;0.71;79.09
76590;BME280;65471;55.908;37.880;2023-03-04T14:25:48;97114.56;;;0.76;79.25
76590;BME280;65471;55.908;37.880;2023-03-04T14:28:17;97113.06;;;0.80;79.29
76590;BME280;65471;55.908;37.880;2023-03-04T14:30:53;97082.75;;;0.69;78.98
76590;BME280;65471;55.908;37.880;2023-03-04T14:33:26;97109.13;;;0.83;78.57
76590;BME280;65471;55.908;37.880;2023-03-04T14:35:56;97104.13;;;0.86;79.19
76590;BME280;65471;55.908;37.880;2023-03-04T14:38:29;97095.34;;;0.86;78.96
76590;BME280;65471;55.908;37.880;2023-03-04T14:41:11;97098.00;;;0.86;78.84
76590;BME280;65471;55.908;37.880;2023-03-04T14:46:42;97079.50;;;0.79;79.37
76590;BME280;65471;55.908;37.880;2023-03-04T14:49:30;97078.84;;;0.72;79.42
76590;BME280;65471;55.908;37.880;2023-03-04T14:51:58;97076.88;;;0.67;79.56
76590;BME280;65471;55.908;37.880;2023-03-04T14:56:55;97079.78;;;0.54;79.23
76590;BME280;65471;55.908;37.880;2023-03-04T14:59:34;97073.09;;;0.51;80.07
76590;BME280;65471;55.908;37.880;2023-03-04T15:02:26;97063.84;;;0.54;80.07
76590;BME280;65471;55.908;37.880;2023-03-04T15:04:59;97046.88;;;0.43;80.06
76590;BME280;65471;55.908;37.880;2023-03-04T15:07:33;97067.09;;;0.56;79.79
76590;BME280;65471;55.908;37.880;2023-03-04T15:10:04;97058.06;;;0.57;80.48
76590;BME280;65471;55.908;37.880;2023-03-04T15:12:34;97047.56;;;0.50;80.71
76590;BME280;65471;55.908;37.880;2023-03-04T15:15:38;97046.97;;;0.60;79.65
76590;BME280;65471;55.908;37.880;2023-03-04T15:18:28;97029.19;;;0.49;80.29
76590;BME280;65471;55.908;37.880;2023-03-04T15:23:31;97025.94;;;0.47;80.63
76590;BME280;65471;55.908;37.880;2023-03-04T15:26:01;97039.69;;;0.56;80.57